Bay City, TX (77404)

11:34 AM CST on December 28, 2014 (GMT -0600)
Bay City | Change Station
CLOSE
Current Station
Airport
Location: Bay City,
Elevation: 46 ft
Nearby Weather Stations

Elev 46 ft 28.97 °N, 95.86 °W | Updated 19 minutes ago

Rain
Rain
42 °F
Feels Like 36 °F
N
12
Wind Variable Wind from NW

Today
High -- | Low -- °F
--% Chance of Precip.
Yesterday
High -- | Low -- °F
Precip. -- in
7:16 AM 5:34 PM
Waxing Crescent, 49% visible
Pressure 30.23 in
Visibility 10.0 miles
Clouds
Windchill 36 °F
Dew Point 42 °F
Humidity 99%
Rainfall 1.28 in
Snow Depth Not available.
UV Not available.
Pollen 3.90 out of 12
Air Quality Not available.
Flu Activity Not available.
METAR KBYY 281715Z AUTO 32010KT 10SM -RA 05/05 A3023 RMK AO2 T00580056

More Conditions Fewer Conditions

Pressure 30.23 in
Visibility 10.0 miles
Clouds
Windchill 36 °F
Dew Point 42 °F
Humidity 99%
Rainfall 1.28 in
Snow Depth Not available.
UV Not available.
Pollen 3.90 out of 12
Air Quality Not available.
Flu Activity Not available.
METAR KBYY 281715Z AUTO 32010KT 10SM -RA 05/05 A3023 RMK AO2 T00580056

More Conditions Fewer Conditions

10-Day Weather Forecast

Almanac

Astronomy

Dec. 28, 2014 Rise Set
Actual Time
Civil Twilight
Nautical Twilight
Astronomical Twilight
Moon
Length of Visible Light
Length of Day
Tomorrow will be .
, % of the Moon is Illuminated

Today's Extremes

State Highs State Lows

Community

WunderPhotos

Upload Photos

1,781,365 photos uploaded!

WunderBlogs® & News

Nearby

Air Quality

  Air Quality AQ Index Pollutant
Not available.

Snow Depth

Station Depth Elevation

Earthquake Activity

City Distance Mag. Time & Date
Minimum magnitude displayed is 2.5.

Coastal Water Temperatures

Place Temperature

Nearby Weather Stations